createdAt,value
2023-04-13T00:00:56.365Z,13.69
2023-04-13T00:05:59.263Z,13.70
2023-04-13T00:11:01.887Z,13.74
2023-04-13T00:16:06.186Z,13.75
2023-04-13T00:21:08.797Z,13.78
2023-04-13T00:26:11.246Z,13.79
2023-04-13T00:31:13.987Z,13.76
2023-04-13T00:36:16.995Z,13.69
2023-04-13T00:41:22.099Z,13.73
2023-04-13T00:46:27.100Z,13.72
2023-04-13T00:51:30.580Z,13.67
2023-04-13T00:56:34.027Z,13.72
2023-04-13T01:01:46.250Z,13.72
2023-04-13T01:07:09.200Z,13.76
2023-04-13T01:12:26.772Z,13.80
2023-04-13T01:17:33.270Z,13.76
2023-04-13T01:22:39.499Z,13.78
2023-04-13T01:27:51.863Z,13.74
2023-04-13T01:32:56.496Z,13.74
2023-04-13T01:38:02.467Z,13.70
2023-04-13T01:43:10.321Z,13.67
2023-04-13T01:48:31.025Z,13.63
2023-04-13T01:53:42.862Z,13.60
2023-04-13T01:58:52.058Z,13.59
2023-04-13T02:03:57.341Z,13.54
2023-04-13T02:09:09.704Z,13.50
2023-04-13T02:14:12.188Z,13.42
2023-04-13T02:19:16.209Z,13.36
2023-04-13T02:24:18.703Z,13.32
2023-04-13T02:29:21.149Z,13.31
2023-04-13T02:34:23.725Z,13.25
2023-04-13T02:39:26.695Z,13.28
2023-04-13T02:44:31.227Z,13.36
2023-04-13T02:49:34.908Z,13.38
2023-04-13T02:54:58.486Z,13.48
2023-04-13T03:00:10.921Z,13.53
2023-04-13T03:05:22.219Z,13.64
2023-04-13T03:10:25.032Z,13.70
2023-04-13T03:15:30.913Z,13.75
2023-04-13T03:20:35.027Z,13.79
2023-04-13T03:25:37.755Z,13.90
2023-04-13T03:30:41.180Z,13.95
2023-04-13T03:35:43.642Z,14.06
2023-04-13T03:40:55.819Z,14.11
2023-04-13T03:46:00.043Z,14.06
2023-04-13T03:51:02.690Z,14.13
2023-04-13T03:56:13.605Z,14.21
2023-04-13T04:01:16.789Z,14.27
2023-04-13T04:06:24.771Z,14.36
2023-04-13T04:11:35.500Z,14.45
2023-04-13T04:16:39.521Z,14.51
2023-04-13T04:21:53.206Z,14.60
2023-04-13T04:26:59.278Z,14.67
2023-04-13T04:32:03.679Z,14.75
2023-04-13T04:37:19.687Z,14.79
2023-04-13T04:42:27.678Z,14.88
2023-04-13T04:47:32.594Z,14.94
2023-04-13T04:52:45.032Z,15.08
2023-04-13T04:57:53.647Z,15.19
2023-04-13T05:03:01.298Z,15.34
2023-04-13T05:08:05.564Z,15.43
2023-04-13T05:13:14.722Z,15.44
2023-04-13T05:18:23.465Z,15.50
2023-04-13T05:23:26.153Z,15.55
2023-04-13T05:28:39.118Z,15.60
2023-04-13T05:33:42.503Z,15.68
2023-04-13T05:38:45.281Z,15.83
2023-04-13T05:43:50.245Z,15.93
2023-04-13T05:48:53.088Z,15.90
2023-04-13T05:53:59.392Z,15.96
2023-04-13T05:59:04.512Z,16.02
2023-04-13T06:04:09.804Z,16.14
2023-04-13T06:09:13.549Z,16.18
2023-04-13T06:14:19.558Z,16.33
2023-04-13T06:19:22.200Z,16.32
2023-04-13T06:24:24.719Z,16.22
2023-04-13T06:29:27.964Z,16.28
2023-04-13T06:34:40.092Z,16.33
2023-04-13T06:39:43.906Z,16.40
2023-04-13T06:44:47.048Z,16.61
2023-04-13T06:49:51.681Z,16.85
2023-04-13T06:54:54.798Z,17.16
2023-04-13T07:00:12.796Z,17.20
2023-04-13T07:05:25.124Z,17.46
2023-04-13T07:10:33.677Z,17.65
2023-04-13T07:15:39.992Z,17.82
2023-04-13T07:20:44.720Z,18.01
2023-04-13T07:25:49.037Z,18.15
2023-04-13T07:30:57.197Z,18.25
2023-04-13T07:36:00.102Z,18.37
2023-04-13T07:41:07.757Z,18.53
2023-04-13T07:46:12.946Z,18.59
2023-04-13T07:51:18.356Z,18.54
2023-04-13T07:56:23.071Z,18.50
2023-04-13T08:01:28.717Z,18.86
2023-04-13T08:06:35.297Z,19.40
2023-04-13T08:11:38.183Z,19.56
2023-04-13T08:16:43.187Z,19.84
2023-04-13T08:21:46.840Z,19.44
2023-04-13T08:26:49.947Z,19.14
2023-04-13T08:31:53.309Z,19.05
2023-04-13T08:36:57.859Z,19.35
2023-04-13T08:42:04.817Z,19.84
2023-04-13T08:47:11.929Z,19.97
2023-04-13T08:52:16.825Z,20.16
2023-04-13T08:57:23.997Z,20.54
2023-04-13T09:02:37.101Z,20.27
2023-04-13T09:07:47.824Z,20.22
2023-04-13T09:12:52.024Z,20.42
2023-04-13T09:17:55.401Z,20.71
2023-04-13T09:22:58.395Z,21.12
2023-04-13T09:28:01.296Z,21.40
2023-04-13T09:33:08.872Z,21.31
2023-04-13T09:38:15.661Z,21.15
2023-04-13T09:43:19.748Z,21.44
2023-04-13T09:48:23.413Z,21.75
2023-04-13T09:53:26.035Z,22.02
2023-04-13T09:58:30.190Z,22.35
2023-04-13T10:03:34.995Z,22.38
2023-04-13T10:08:39.323Z,22.80
2023-04-13T10:13:48.650Z,23.11
2023-04-13T10:19:06.675Z,23.06
2023-04-13T10:24:14.255Z,23.07
2023-04-13T10:29:30.829Z,23.38
2023-04-13T10:34:39.285Z,23.11
2023-04-13T10:39:41.825Z,22.91
2023-04-13T10:44:52.051Z,23.28
2023-04-13T10:49:54.719Z,23.84
2023-04-13T10:54:57.946Z,24.16
2023-04-13T11:00:00.962Z,24.64
2023-04-13T11:05:04.504Z,25.09
2023-04-13T11:10:07.880Z,25.04
2023-04-13T11:15:10.913Z,25.75
2023-04-13T11:20:13.504Z,25.06
2023-04-13T11:25:16.666Z,25.28
2023-04-13T11:30:22.688Z,25.90
2023-04-13T11:35:25.493Z,26.13
2023-04-13T11:40:28.478Z,24.90
2023-04-13T11:45:31.354Z,24.16
2023-04-13T11:50:34.489Z,24.27
2023-04-13T11:55:51.933Z,23.75
2023-04-13T12:00:59.913Z,23.65
2023-04-13T12:06:06.050Z,24.08
2023-04-13T12:11:39.191Z,24.74
2023-04-13T12:21:40.161Z,24.20
2023-04-13T12:27:17.208Z,23.49
2023-04-13T12:32:11.982Z,23.01
2023-04-13T12:37:14.500Z,22.36
2023-04-13T12:42:17.286Z,22.06
2023-04-13T12:47:19.985Z,21.63
2023-04-13T12:52:22.716Z,21.21
2023-04-13T12:57:25.369Z,20.83
2023-04-13T13:02:31.294Z,20.58
2023-04-13T13:07:33.968Z,20.30
2023-04-13T13:12:36.566Z,19.94
2023-04-13T13:17:42.636Z,19.67
2023-04-13T13:22:45.157Z,19.50
2023-04-13T13:32:53.305Z,19.36
2023-04-13T13:37:55.815Z,19.30
2023-04-13T13:42:58.452Z,19.21
2023-04-13T13:48:01.207Z,19.12
2023-04-13T13:53:14.379Z,18.95
2023-04-13T13:58:18.000Z,18.82
2023-04-13T14:03:21.286Z,18.78
2023-04-13T14:08:23.996Z,18.68
2023-04-13T14:13:26.899Z,18.64
2023-04-13T14:18:29.875Z,18.63
2023-04-13T14:23:32.958Z,18.54
2023-04-13T14:28:37.052Z,18.43
2023-04-13T14:33:39.647Z,18.47
2023-04-13T14:38:42.576Z,18.48
2023-04-13T14:43:45.124Z,18.41
2023-04-13T14:48:47.667Z,18.43
2023-04-13T14:53:50.400Z,18.43
2023-04-13T14:58:53.389Z,18.38
2023-04-13T15:03:56.400Z,18.29
2023-04-13T15:09:00.757Z,18.19
2023-04-13T15:14:04.010Z,18.08
2023-04-13T15:19:06.541Z,18.03
2023-04-13T15:24:11.897Z,17.99
2023-04-13T15:29:14.474Z,17.93
2023-04-13T15:34:17.120Z,17.89
2023-04-13T15:39:19.823Z,17.82
2023-04-13T15:44:22.558Z,17.78
2023-04-13T15:49:25.209Z,17.74
2023-04-13T15:54:27.673Z,17.68
2023-04-13T15:59:31.188Z,17.64
2023-04-13T16:04:33.862Z,17.56
2023-04-13T16:09:36.676Z,17.48
2023-04-13T16:14:42.165Z,17.41
2023-04-13T16:19:47.326Z,17.20
2023-04-13T16:24:49.925Z,16.97
2023-04-13T16:29:52.574Z,16.88
2023-04-13T16:34:55.573Z,16.15
2023-04-13T16:39:58.135Z,15.86
2023-04-13T16:45:03.501Z,15.70
2023-04-13T16:50:08.541Z,14.94
2023-04-13T16:55:15.224Z,14.63
2023-04-13T17:00:21.221Z,14.67
2023-04-13T17:05:28.534Z,14.91
2023-04-13T17:10:31.020Z,15.02
2023-04-13T17:15:33.653Z,15.17
2023-04-13T17:20:40.085Z,15.16
2023-04-13T17:25:45.508Z,15.18
2023-04-13T17:30:48.087Z,15.10
2023-04-13T17:35:56.769Z,15.06
2023-04-13T17:40:59.289Z,15.04
2023-04-13T17:46:04.299Z,15.02
2023-04-13T17:51:12.795Z,14.93
2023-04-13T17:56:18.899Z,14.91
2023-04-13T18:01:25.911Z,14.84
2023-04-13T18:06:34.519Z,14.79
2023-04-13T18:11:37.131Z,14.76
2023-04-13T18:16:39.826Z,14.64
2023-04-13T18:21:42.457Z,14.63
2023-04-13T18:26:45.092Z,14.63
2023-04-13T18:31:47.827Z,14.53
2023-04-13T18:36:50.465Z,14.30
2023-04-13T18:41:53.046Z,14.31
2023-04-13T18:46:58.963Z,14.28
2023-04-13T18:52:01.650Z,14.33
2023-04-13T18:57:04.320Z,14.37
2023-04-13T19:02:06.834Z,14.36
2023-04-13T19:07:09.400Z,14.34
2023-04-13T19:12:11.978Z,14.24
2023-04-13T19:17:14.658Z,14.38
2023-04-13T19:22:17.096Z,14.42
2023-04-13T19:27:19.647Z,14.52
2023-04-13T19:32:22.468Z,14.55
2023-04-13T19:37:24.976Z,14.53
2023-04-13T19:42:28.863Z,14.43
2023-04-13T19:47:31.441Z,14.37
2023-04-13T19:52:34.480Z,14.26
2023-04-13T19:57:42.555Z,14.24
2023-04-13T20:02:47.332Z,14.17
2023-04-13T20:07:50.064Z,14.15
2023-04-13T20:12:52.728Z,14.10
2023-04-13T20:17:55.842Z,14.01
2023-04-13T20:22:58.289Z,13.97
2023-04-13T20:28:00.854Z,13.89
2023-04-13T20:33:05.594Z,13.82
2023-04-13T20:38:10.192Z,13.75
2023-04-13T20:43:15.746Z,13.73
2023-04-13T20:53:41.918Z,13.67
2023-04-13T20:58:46.317Z,13.65
2023-04-13T21:03:49.183Z,13.57
2023-04-13T21:08:53.048Z,13.53
2023-04-13T21:13:55.714Z,13.53
2023-04-13T21:18:58.336Z,13.58
2023-04-13T21:24:01.287Z,13.56
2023-04-13T21:29:04.495Z,13.56
2023-04-13T21:34:08.421Z,13.60
2023-04-13T21:39:11.687Z,13.64
2023-04-13T21:44:28.870Z,13.57
2023-04-13T21:49:32.831Z,13.41
2023-04-13T21:54:38.566Z,13.33
2023-04-13T21:59:41.364Z,13.16
2023-04-13T22:04:43.838Z,13.15
2023-04-13T22:09:46.195Z,13.00
2023-04-13T22:14:48.635Z,12.90
2023-04-13T22:19:51.188Z,12.85
2023-04-13T22:24:53.839Z,12.83
2023-04-13T22:29:56.306Z,12.57
2023-04-13T22:34:58.825Z,12.23
2023-04-13T22:40:02.648Z,12.06
2023-04-13T22:45:05.552Z,11.90
2023-04-13T22:50:08.296Z,11.88
2023-04-13T22:55:10.775Z,11.90
2023-04-13T23:00:13.995Z,11.89
2023-04-13T23:05:16.841Z,11.79
2023-04-13T23:10:19.561Z,11.74
2023-04-13T23:15:22.096Z,11.64
2023-04-13T23:20:24.778Z,11.62
2023-04-13T23:25:27.339Z,11.49
2023-04-13T23:30:30.068Z,11.46
2023-04-13T23:35:32.648Z,11.45
2023-04-13T23:40:35.252Z,11.26
2023-04-13T23:45:38.268Z,11.04
2023-04-13T23:50:40.804Z,10.89
2023-04-13T23:55:43.308Z,10.82
